createdAt,value
2023-03-11T00:00:41.013Z,79.08
2023-03-11T00:03:25.184Z,79.22
2023-03-11T00:05:58.893Z,79.19
2023-03-11T00:08:33.329Z,79.04
2023-03-11T00:11:04.038Z,79.37
2023-03-11T00:13:48.352Z,79.10
2023-03-11T00:16:38.833Z,79.14
2023-03-11T00:19:08.212Z,79.26
2023-03-11T00:24:57.890Z,79.18
2023-03-11T00:27:28.734Z,79.15
2023-03-11T00:29:57.565Z,79.33
2023-03-11T00:32:26.636Z,79.31
2023-03-11T00:35:00.663Z,79.36
2023-03-11T00:37:29.937Z,79.17
2023-03-11T00:40:02.363Z,79.59
2023-03-11T00:42:33.743Z,79.39
2023-03-11T00:45:06.806Z,79.40
2023-03-11T00:47:39.065Z,79.31
2023-03-11T00:50:11.601Z,79.11
2023-03-11T00:52:42.691Z,79.41
2023-03-11T00:55:15.639Z,79.37
2023-03-11T00:57:46.431Z,79.55
2023-03-11T01:00:21.257Z,79.48
2023-03-11T01:02:57.751Z,79.34
2023-03-11T01:05:31.352Z,79.44
2023-03-11T01:08:05.399Z,79.17
2023-03-11T01:10:37.064Z,79.36
2023-03-11T01:13:06.577Z,79.14
2023-03-11T01:15:39.233Z,78.97
2023-03-11T01:18:10.303Z,78.93
2023-03-11T01:20:39.490Z,79.47
2023-03-11T01:23:11.220Z,79.49
2023-03-11T01:25:41.444Z,79.60
2023-03-11T01:28:14.298Z,79.76
2023-03-11T01:30:46.248Z,79.59
2023-03-11T01:33:19.907Z,79.49
2023-03-11T01:35:49.701Z,79.58
2023-03-11T01:38:21.331Z,79.39
2023-03-11T01:40:52.878Z,79.70
2023-03-11T01:44:00.953Z,79.63
2023-03-11T01:46:54.190Z,79.45
2023-03-11T01:49:33.298Z,79.42
2023-03-11T01:52:08.250Z,79.72
2023-03-11T01:54:45.446Z,79.37
2023-03-11T01:57:16.332Z,79.39
2023-03-11T01:59:51.341Z,79.22
2023-03-11T02:02:46.075Z,79.25
2023-03-11T02:05:22.594Z,79.48
2023-03-11T02:07:54.474Z,79.44
2023-03-11T02:10:26.122Z,79.44
2023-03-11T02:12:58.066Z,79.31
2023-03-11T02:15:31.240Z,79.63
2023-03-11T02:18:05.660Z,79.71
2023-03-11T02:20:49.664Z,79.53
2023-03-11T02:23:23.785Z,79.83
2023-03-11T02:26:15.624Z,79.92
2023-03-11T02:28:49.901Z,79.73
2023-03-11T02:31:22.376Z,79.17
2023-03-11T02:33:53.707Z,79.15
2023-03-11T02:36:36.340Z,79.28
2023-03-11T02:39:07.233Z,78.77
2023-03-11T02:41:42.427Z,78.40
2023-03-11T02:44:16.242Z,78.51
2023-03-11T02:46:49.271Z,78.09
2023-03-11T02:49:21.280Z,78.32
2023-03-11T02:51:52.674Z,78.30
2023-03-11T02:54:28.414Z,78.23
2023-03-11T02:56:59.853Z,77.78
2023-03-11T02:59:31.520Z,77.62
2023-03-11T03:02:03.327Z,78.01
2023-03-11T03:04:33.550Z,77.93
2023-03-11T03:07:04.359Z,78.18
2023-03-11T03:09:36.729Z,77.72
2023-03-11T03:12:08.320Z,78.43
2023-03-11T03:14:37.754Z,78.23
2023-03-11T03:17:07.184Z,78.28
2023-03-11T03:19:37.146Z,78.34
2023-03-11T03:22:08.394Z,78.37
2023-03-11T03:24:38.534Z,78.29
2023-03-11T03:27:09.930Z,78.44
2023-03-11T03:29:39.938Z,78.71
2023-03-11T03:32:10.770Z,78.26
2023-03-11T03:34:39.793Z,78.45
2023-03-11T03:37:12.403Z,78.05
2023-03-11T03:39:43.256Z,78.26
2023-03-11T03:42:14.277Z,77.68
2023-03-11T03:44:45.625Z,78.07
2023-03-11T03:47:16.884Z,77.97
2023-03-11T03:49:48.560Z,78.21
2023-03-11T03:52:22.161Z,78.22
2023-03-11T03:54:55.176Z,78.76
2023-03-11T03:57:26.586Z,78.56
2023-03-11T03:59:57.010Z,78.00
2023-03-11T04:02:27.225Z,78.04
2023-03-11T04:04:58.885Z,77.98
2023-03-11T04:07:30.531Z,78.32
2023-03-11T04:10:00.833Z,77.83
2023-03-11T04:12:34.209Z,77.96
2023-03-11T04:15:04.840Z,77.83
2023-03-11T04:17:38.961Z,78.09
2023-03-11T04:20:11.203Z,77.90
2023-03-11T04:22:41.714Z,78.10
2023-03-11T04:25:12.220Z,78.75
2023-03-11T04:27:46.302Z,78.11
2023-03-11T04:30:17.404Z,77.84
2023-03-11T04:32:47.433Z,77.81
2023-03-11T04:35:21.679Z,77.68
2023-03-11T04:37:53.357Z,78.05
2023-03-11T04:40:24.728Z,78.21
2023-03-11T04:42:55.286Z,77.98
2023-03-11T04:45:25.726Z,77.78
2023-03-11T04:48:01.725Z,78.04
2023-03-11T04:50:33.299Z,77.93
2023-03-11T04:53:04.181Z,78.24
2023-03-11T04:55:35.162Z,78.08
2023-03-11T04:58:05.500Z,78.37
2023-03-11T05:00:36.930Z,78.15
2023-03-11T05:03:13.404Z,78.29
2023-03-11T05:05:44.859Z,78.32
2023-03-11T05:08:16.290Z,78.19
2023-03-11T05:10:48.770Z,77.87
2023-03-11T05:13:21.412Z,78.40
2023-03-11T05:15:53.394Z,78.69
2023-03-11T05:18:23.248Z,78.83
2023-03-11T05:20:55.039Z,78.37
2023-03-11T05:23:30.462Z,78.77
2023-03-11T05:26:01.101Z,78.34
2023-03-11T05:28:32.443Z,78.34
2023-03-11T05:31:02.954Z,77.97
2023-03-11T05:33:36.127Z,78.43
2023-03-11T05:36:10.746Z,78.55
2023-03-11T05:38:43.309Z,78.44
2023-03-11T05:41:13.993Z,78.50
2023-03-11T05:43:45.106Z,78.53
2023-03-11T05:46:17.053Z,78.28
2023-03-11T05:48:50.278Z,78.47
2023-03-11T05:51:20.153Z,78.20
2023-03-11T05:53:53.060Z,78.22
2023-03-11T05:56:30.045Z,78.19
2023-03-11T05:59:01.271Z,78.13
2023-03-11T06:01:33.226Z,78.19
2023-03-11T06:04:04.132Z,78.21
2023-03-11T06:06:34.688Z,78.70
2023-03-11T06:09:04.759Z,78.35
2023-03-11T06:11:37.196Z,78.24
2023-03-11T06:14:07.881Z,77.64
2023-03-11T06:16:36.989Z,78.30
2023-03-11T06:19:10.026Z,77.98
2023-03-11T06:21:43.229Z,78.24
2023-03-11T06:24:12.767Z,78.46
2023-03-11T06:26:44.650Z,78.22
2023-03-11T06:29:15.900Z,78.26
2023-03-11T06:31:46.723Z,78.07
2023-03-11T06:34:17.588Z,78.11
2023-03-11T06:36:48.938Z,78.18
2023-03-11T06:39:19.827Z,78.21
2023-03-11T06:41:51.158Z,78.04
2023-03-11T06:44:23.189Z,77.79
2023-03-11T06:46:54.437Z,77.77
2023-03-11T06:49:25.177Z,77.93
2023-03-11T06:51:58.626Z,77.81
2023-03-11T06:54:32.632Z,77.61
2023-03-11T06:57:04.175Z,78.05
2023-03-11T06:59:33.681Z,78.09
2023-03-11T07:02:06.642Z,78.46
2023-03-11T07:04:36.910Z,77.74
2023-03-11T07:07:10.842Z,77.72
2023-03-11T07:09:41.266Z,77.59
2023-03-11T07:12:15.128Z,77.62
2023-03-11T07:14:44.754Z,77.68
2023-03-11T07:17:15.743Z,77.73
2023-03-11T07:19:48.488Z,77.64
2023-03-11T07:22:21.421Z,77.60
2023-03-11T07:24:52.133Z,77.26
2023-03-11T07:27:24.110Z,77.48
2023-03-11T07:29:55.286Z,77.39
2023-03-11T07:32:26.619Z,77.82
2023-03-11T07:35:00.030Z,77.70
2023-03-11T07:37:32.251Z,77.30
2023-03-11T07:40:03.988Z,76.87
2023-03-11T07:42:36.527Z,77.47
2023-03-11T07:45:07.174Z,77.44
2023-03-11T07:47:41.789Z,77.44
2023-03-11T07:50:12.524Z,77.51
2023-03-11T07:52:44.346Z,77.80
2023-03-11T07:55:18.028Z,77.69
2023-03-11T07:57:49.570Z,77.52
2023-03-11T08:00:21.285Z,77.51
2023-03-11T08:02:51.681Z,77.45
2023-03-11T08:05:24.509Z,77.15
2023-03-11T08:07:57.568Z,77.00
2023-03-11T08:10:28.053Z,77.24
2023-03-11T08:12:58.643Z,77.39
2023-03-11T08:15:29.556Z,77.02
2023-03-11T08:18:01.611Z,77.49
2023-03-11T08:25:27.522Z,77.21
2023-03-11T08:27:57.951Z,77.35
2023-03-11T08:30:28.589Z,77.46
2023-03-11T08:32:58.160Z,77.08
2023-03-11T08:35:27.550Z,77.06
2023-03-11T08:37:57.203Z,76.45
2023-03-11T08:40:29.921Z,76.84
2023-03-11T08:43:00.172Z,76.30
2023-03-11T08:45:30.052Z,77.21
2023-03-11T08:48:00.514Z,77.03
2023-03-11T08:50:44.190Z,76.69
2023-03-11T08:53:23.221Z,77.12
2023-03-11T08:55:54.253Z,76.86
2023-03-11T08:58:24.934Z,76.63
2023-03-11T09:01:03.420Z,76.76
2023-03-11T09:03:36.615Z,76.65
2023-03-11T09:06:12.646Z,76.51
2023-03-11T09:08:47.142Z,77.00
2023-03-11T09:11:22.448Z,76.55
2023-03-11T09:13:52.326Z,76.44
2023-03-11T09:16:24.167Z,76.68
2023-03-11T09:18:54.857Z,76.63
2023-03-11T09:21:25.096Z,76.58
2023-03-11T09:23:56.399Z,76.06
2023-03-11T09:26:26.914Z,76.25
2023-03-11T09:29:15.411Z,76.61
2023-03-11T09:31:50.308Z,76.69
2023-03-11T09:34:19.641Z,76.54
2023-03-11T09:36:50.285Z,76.71
2023-03-11T09:39:28.903Z,76.57
2023-03-11T09:42:04.303Z,76.34
2023-03-11T09:44:44.573Z,76.01
2023-03-11T09:47:37.243Z,76.43
2023-03-11T09:50:22.828Z,76.32
2023-03-11T09:53:16.201Z,76.58
2023-03-11T09:55:59.581Z,76.53
2023-03-11T09:58:36.991Z,76.12
2023-03-11T10:01:18.824Z,76.51
2023-03-11T10:04:01.151Z,76.24
2023-03-11T10:06:31.791Z,76.19
2023-03-11T10:09:07.897Z,76.42
2023-03-11T10:11:55.541Z,76.44
2023-03-11T10:14:50.125Z,76.32
2023-03-11T10:17:53.498Z,75.87
2023-03-11T10:20:32.444Z,75.71
2023-03-11T10:23:22.906Z,76.02
2023-03-11T10:26:02.625Z,75.97
2023-03-11T10:29:05.275Z,75.72
2023-03-11T10:32:08.229Z,75.57
2023-03-11T10:34:45.333Z,75.85
2023-03-11T10:37:33.229Z,76.28
2023-03-11T10:40:21.000Z,75.99
2023-03-11T10:42:52.918Z,76.09
2023-03-11T10:45:24.109Z,75.56
2023-03-11T10:47:53.968Z,76.04
2023-03-11T10:50:26.093Z,75.45
2023-03-11T10:53:08.902Z,75.31
2023-03-11T10:55:50.832Z,75.52
2023-03-11T10:58:26.385Z,75.40
2023-03-11T11:01:04.401Z,75.45
2023-03-11T11:03:35.119Z,75.13
2023-03-11T11:06:07.955Z,75.23
2023-03-11T11:08:37.345Z,75.45
2023-03-11T11:11:22.111Z,75.06
2023-03-11T11:13:59.500Z,74.78
2023-03-11T11:16:30.417Z,75.10
2023-03-11T11:19:12.603Z,75.30
2023-03-11T11:25:36.212Z,75.43
2023-03-11T11:28:35.114Z,74.92
2023-03-11T11:31:19.902Z,74.73
2023-03-11T11:33:55.669Z,74.88
2023-03-11T11:36:31.122Z,74.85
2023-03-11T11:39:21.268Z,75.11
2023-03-11T11:42:40.663Z,74.84
2023-03-11T11:46:14.886Z,74.61
2023-03-11T11:49:24.792Z,74.60
2023-03-11T12:02:29.250Z,74.49
2023-03-11T12:09:11.480Z,74.55
2023-03-11T12:14:44.813Z,74.34
2023-03-11T12:17:26.455Z,74.50
2023-03-11T12:20:09.021Z,74.20
2023-03-11T12:22:56.803Z,73.82
2023-03-11T12:26:03.880Z,73.94
2023-03-11T12:28:59.309Z,74.23
2023-03-11T12:31:35.562Z,74.23
2023-03-11T12:34:08.599Z,73.89
2023-03-11T12:36:44.142Z,73.89
2023-03-11T12:39:40.406Z,74.30
2023-03-11T12:42:41.175Z,74.02
2023-03-11T12:45:48.042Z,74.30
2023-03-11T12:48:40.594Z,73.77
2023-03-11T12:58:38.667Z,73.33
2023-03-11T13:01:48.296Z,73.44
2023-03-11T13:04:46.187Z,73.08
2023-03-11T13:07:26.245Z,73.27
2023-03-11T13:10:19.255Z,73.03
2023-03-11T13:12:51.521Z,73.09
2023-03-11T13:15:36.589Z,73.30
2023-03-11T13:18:34.086Z,73.27
2023-03-11T13:21:05.486Z,72.95
2023-03-11T13:23:40.897Z,73.21
2023-03-11T13:26:43.600Z,72.63
2023-03-11T13:29:47.474Z,72.58
2023-03-11T13:32:54.216Z,72.64
2023-03-11T13:35:32.444Z,72.89
2023-03-11T13:39:03.882Z,72.97
2023-03-11T13:41:36.766Z,72.98
2023-03-11T13:44:30.888Z,72.99
2023-03-11T13:47:21.776Z,72.78
2023-03-11T13:50:07.427Z,72.84
2023-03-11T13:52:54.118Z,72.40
2023-03-11T13:55:36.633Z,72.33
2023-03-11T13:58:30.801Z,72.77
2023-03-11T14:01:25.498Z,72.37
2023-03-11T14:03:55.030Z,72.59
2023-03-11T14:06:25.395Z,72.62
2023-03-11T14:21:36.478Z,72.36
2023-03-11T14:24:17.179Z,72.27
2023-03-11T14:27:33.298Z,72.04
2023-03-11T14:30:06.248Z,72.27
2023-03-11T14:32:45.509Z,71.51
2023-03-11T14:35:21.480Z,72.04
2023-03-11T14:41:41.073Z,71.75
2023-03-11T14:44:18.935Z,71.53
2023-03-11T14:53:31.136Z,71.62
2023-03-11T14:56:09.392Z,71.48
2023-03-11T14:58:55.683Z,71.03
2023-03-11T15:01:46.692Z,71.61
2023-03-11T15:04:34.468Z,71.61
2023-03-11T15:07:09.639Z,71.27
2023-03-11T15:09:43.684Z,71.37
2023-03-11T15:12:43.105Z,71.75
2023-03-11T15:15:32.262Z,70.88
2023-03-11T15:18:03.781Z,71.57
2023-03-11T15:20:36.598Z,71.35
2023-03-11T15:23:23.711Z,71.72
2023-03-11T15:25:55.240Z,71.16
2023-03-11T15:28:33.314Z,71.15
2023-03-11T15:31:22.729Z,70.96
2023-03-11T15:33:54.319Z,71.20
2023-03-11T15:36:41.048Z,71.08
2023-03-11T15:39:21.946Z,71.43
2023-03-11T15:42:08.053Z,71.12
2023-03-11T15:45:03.456Z,70.68
2023-03-11T15:47:36.437Z,70.57
2023-03-11T15:50:46.934Z,70.18
2023-03-11T15:53:51.726Z,70.02
2023-03-11T15:56:33.561Z,71.00
2023-03-11T15:59:05.613Z,71.23
2023-03-11T16:01:40.999Z,70.26
2023-03-11T16:04:17.129Z,70.42
2023-03-11T16:07:07.144Z,71.03
2023-03-11T16:09:41.636Z,70.41
2023-03-11T16:12:24.401Z,70.44
2023-03-11T16:14:56.809Z,70.53
2023-03-11T16:17:46.685Z,70.11
2023-03-11T16:20:22.112Z,70.42
2023-03-11T16:23:03.414Z,69.95
2023-03-11T16:25:39.786Z,69.96
2023-03-11T16:28:14.229Z,70.61
2023-03-11T16:30:44.501Z,69.75
2023-03-11T16:33:13.999Z,70.01
2023-03-11T16:35:44.075Z,70.16
2023-03-11T16:38:15.086Z,70.23
2023-03-11T16:40:45.033Z,70.66
2023-03-11T16:43:19.718Z,70.47
2023-03-11T16:45:50.123Z,70.43
2023-03-11T16:48:23.060Z,69.75
2023-03-11T16:50:52.744Z,70.11
2023-03-11T16:53:26.163Z,70.12
2023-03-11T16:55:56.998Z,69.86
2023-03-11T16:58:27.275Z,70.10
2023-03-11T17:01:00.604Z,68.91
2023-03-11T17:03:41.878Z,69.32
2023-03-11T17:06:13.210Z,69.26
2023-03-11T17:08:49.835Z,69.54
2023-03-11T17:11:25.431Z,69.39
2023-03-11T17:14:13.645Z,69.41
2023-03-11T17:16:47.579Z,68.84
2023-03-11T17:19:19.912Z,68.64
2023-03-11T17:21:51.472Z,69.19
2023-03-11T17:24:23.808Z,68.37
2023-03-11T17:26:57.533Z,68.68
2023-03-11T17:29:31.877Z,68.97
2023-03-11T17:32:03.166Z,67.91
2023-03-11T17:34:34.657Z,68.49
2023-03-11T17:37:06.271Z,69.24
2023-03-11T17:39:37.368Z,69.85
2023-03-11T17:42:07.989Z,69.04
2023-03-11T17:44:51.126Z,68.96
2023-03-11T17:47:26.510Z,68.01
2023-03-11T17:49:56.707Z,68.27
2023-03-11T17:52:32.716Z,68.21
2023-03-11T17:55:04.402Z,68.43
2023-03-11T17:57:45.026Z,68.76
2023-03-11T18:00:18.437Z,68.43
2023-03-11T18:02:48.177Z,68.40
2023-03-11T18:05:22.030Z,68.08
2023-03-11T18:07:59.425Z,68.02
2023-03-11T18:10:30.525Z,68.19
2023-03-11T18:13:03.804Z,68.43
2023-03-11T18:15:37.655Z,68.53
2023-03-11T18:18:09.145Z,68.72
2023-03-11T18:20:40.634Z,69.12
2023-03-11T18:23:12.264Z,68.20
2023-03-11T18:25:46.276Z,68.28
2023-03-11T18:28:19.314Z,68.21
2023-03-11T18:30:49.103Z,68.99
2023-03-11T18:33:25.516Z,67.67
2023-03-11T18:36:02.065Z,68.54
2023-03-11T18:38:40.226Z,68.80
2023-03-11T18:41:17.355Z,67.85
2023-03-11T18:43:59.997Z,67.09
2023-03-11T18:46:34.393Z,67.16
2023-03-11T18:49:08.164Z,67.28
2023-03-11T18:51:43.074Z,67.29
2023-03-11T18:54:16.404Z,67.07
2023-03-11T18:56:48.556Z,67.36
2023-03-11T18:59:23.453Z,67.65
2023-03-11T19:01:57.720Z,67.57
2023-03-11T19:04:31.384Z,67.04
2023-03-11T19:07:04.645Z,67.05
2023-03-11T19:09:37.396Z,67.49
2023-03-11T19:12:07.603Z,67.34
2023-03-11T19:14:38.879Z,67.04
2023-03-11T19:17:14.652Z,67.27
2023-03-11T19:19:46.220Z,67.90
2023-03-11T19:22:17.963Z,67.92
2023-03-11T19:24:48.114Z,68.04
2023-03-11T19:27:19.327Z,68.31
2023-03-11T19:29:49.984Z,68.10
2023-03-11T19:32:24.286Z,68.18
2023-03-11T19:34:58.576Z,68.08
2023-03-11T19:37:30.768Z,68.12
2023-03-11T19:40:02.344Z,68.28
2023-03-11T19:42:35.110Z,68.62
2023-03-11T19:45:09.771Z,68.50
2023-03-11T19:47:47.361Z,68.43
2023-03-11T19:50:40.607Z,67.92
2023-03-11T19:53:13.663Z,68.31
2023-03-11T19:55:48.912Z,68.75
2023-03-11T19:58:22.431Z,68.64
2023-03-11T20:00:54.307Z,68.73
2023-03-11T20:03:27.311Z,68.10
2023-03-11T20:06:00.464Z,68.41
2023-03-11T20:08:37.394Z,67.86
2023-03-11T20:11:11.142Z,67.84
2023-03-11T20:13:45.708Z,68.29
2023-03-11T20:16:19.014Z,68.53
2023-03-11T20:18:51.163Z,67.82
2023-03-11T20:21:24.533Z,68.69
2023-03-11T20:23:57.532Z,68.07
2023-03-11T20:26:31.195Z,67.99
2023-03-11T20:29:02.508Z,68.00
2023-03-11T20:31:41.562Z,67.59
2023-03-11T20:34:13.391Z,67.90
2023-03-11T20:36:47.927Z,67.91
2023-03-11T20:39:19.722Z,67.75
2023-03-11T20:41:51.103Z,67.41
2023-03-11T20:44:23.224Z,67.68
2023-03-11T20:46:57.617Z,68.12
2023-03-11T20:49:29.782Z,67.80
2023-03-11T20:52:02.183Z,67.91
2023-03-11T20:54:34.322Z,67.96
2023-03-11T20:57:06.501Z,68.19
2023-03-11T20:59:38.273Z,68.24
2023-03-11T21:02:11.855Z,68.69
2023-03-11T21:04:48.936Z,68.59
2023-03-11T21:07:20.980Z,68.69
2023-03-11T21:09:56.332Z,68.79
2023-03-11T21:12:31.306Z,68.73
2023-03-11T21:15:03.067Z,68.69
2023-03-11T21:17:35.584Z,68.84
2023-03-11T21:20:10.142Z,69.34
2023-03-11T21:22:40.612Z,68.72
2023-03-11T21:25:10.343Z,68.92
2023-03-11T21:27:40.424Z,68.95
2023-03-11T21:30:13.608Z,68.91
2023-03-11T21:32:43.970Z,68.79
2023-03-11T21:35:18.225Z,68.81
2023-03-11T21:37:48.736Z,69.14
2023-03-11T21:40:20.262Z,69.06
2023-03-11T21:42:51.942Z,69.19
2023-03-11T21:45:25.813Z,69.23
2023-03-11T21:47:59.170Z,69.45
2023-03-11T21:50:29.839Z,69.52
2023-03-11T21:53:00.680Z,69.30
2023-03-11T21:55:35.315Z,69.27
2023-03-11T21:58:09.407Z,69.47
2023-03-11T22:00:39.308Z,69.18
2023-03-11T22:03:09.965Z,69.26
2023-03-11T22:05:40.758Z,69.23
2023-03-11T22:08:16.025Z,69.16
2023-03-11T22:10:48.529Z,69.35
2023-03-11T22:13:19.354Z,69.65
2023-03-11T22:15:50.390Z,69.58
2023-03-11T22:18:21.606Z,69.09
2023-03-11T22:20:52.374Z,69.41
2023-03-11T22:23:22.549Z,69.35
2023-03-11T22:25:53.639Z,69.26
2023-03-11T22:28:24.313Z,69.30
2023-03-11T22:30:56.114Z,69.33
2023-03-11T22:33:26.914Z,69.48
2023-03-11T22:35:57.902Z,69.53
2023-03-11T22:38:28.187Z,69.51
2023-03-11T22:41:00.668Z,69.33
2023-03-11T22:43:29.824Z,69.43
2023-03-11T22:46:02.220Z,69.54
2023-03-11T22:48:33.354Z,69.75
2023-03-11T22:51:05.447Z,69.69
2023-03-11T22:53:38.041Z,69.77
2023-03-11T22:56:10.394Z,69.69
2023-03-11T22:58:41.847Z,69.67
2023-03-11T23:01:11.929Z,69.72
2023-03-11T23:03:43.780Z,69.88
2023-03-11T23:06:19.196Z,69.74
2023-03-11T23:08:50.629Z,70.05
2023-03-11T23:11:23.680Z,69.98
2023-03-11T23:13:54.220Z,70.26
2023-03-11T23:16:27.307Z,70.34
2023-03-11T23:18:57.345Z,70.34
2023-03-11T23:21:32.535Z,70.36
2023-03-11T23:24:05.388Z,70.34
2023-03-11T23:26:35.865Z,70.15
2023-03-11T23:29:07.536Z,70.17
2023-03-11T23:31:38.665Z,70.15
2023-03-11T23:34:09.990Z,70.51
2023-03-11T23:36:40.003Z,70.08
2023-03-11T23:39:11.470Z,70.36
2023-03-11T23:41:41.746Z,70.24
2023-03-11T23:44:11.806Z,70.42
2023-03-11T23:46:44.472Z,70.47
2023-03-11T23:49:16.011Z,70.60
2023-03-11T23:51:45.100Z,70.63
2023-03-11T23:54:17.591Z,70.76
2023-03-11T23:56:47.775Z,70.87
2023-03-11T23:59:17.978Z,70.84
